sensor_id;sensor_type;location;lat;lon;timestamp;pressure;altitude;pressure_sealevel;temperature;humidity
20394;BME280;10356;50.544;9.642;2023-04-25T00:01:03;97484.91;;;8.67;100.00
20394;BME280;10356;50.544;9.642;2023-04-25T00:03:30;97479.72;;;8.67;100.00
20394;BME280;10356;50.544;9.642;2023-04-25T00:05:58;97476.44;;;8.65;100.00
20394;BME280;10356;50.544;9.642;2023-04-25T00:08:27;97478.91;;;8.67;100.00
20394;BME280;10356;50.544;9.642;2023-04-25T00:10:53;97490.38;;;8.64;100.00
20394;BME280;10356;50.544;9.642;2023-04-25T00:13:20;97480.09;;;8.63;100.00
20394;BME280;10356;50.544;9.642;2023-04-25T00:15:47;97479.53;;;8.59;100.00
20394;BME280;10356;50.544;9.642;2023-04-25T00:18:13;97477.91;;;8.58;100.00
20394;BME280;10356;50.544;9.642;2023-04-25T00:20:40;97482.38;;;8.56;100.00
20394;BME280;10356;50.544;9.642;2023-04-25T00:23:10;97484.03;;;8.57;100.00
20394;BME280;10356;50.544;9.642;2023-04-25T00:25:37;97480.50;;;8.58;100.00
20394;BME280;10356;50.544;9.642;2023-04-25T00:28:03;97478.50;;;8.51;100.00
20394;BME280;10356;50.544;9.642;2023-04-25T00:30:30;97488.31;;;8.47;100.00
20394;BME280;10356;50.544;9.642;2023-04-25T00:32:56;97488.97;;;8.60;100.00
20394;BME280;10356;50.544;9.642;2023-04-25T00:35:23;97482.13;;;8.59;100.00
20394;BME280;10356;50.544;9.642;2023-04-25T00:37:49;97483.59;;;8.52;100.00
20394;BME280;10356;50.544;9.642;2023-04-25T00:40:17;97484.19;;;8.44;100.00
20394;BME280;10356;50.544;9.642;2023-04-25T00:42:44;97484.78;;;8.48;100.00
20394;BME280;10356;50.544;9.642;2023-04-25T00:45:13;97481.50;;;8.46;100.00
20394;BME280;10356;50.544;9.642;2023-04-25T00:47:40;97477.28;;;8.34;100.00
20394;BME280;10356;50.544;9.642;2023-04-25T00:50:08;97482.72;;;8.31;100.00
20394;BME280;10356;50.544;9.642;2023-04-25T00:52:35;97487.41;;;8.37;100.00
20394;BME280;10356;50.544;9.642;2023-04-25T00:55:02;97486.56;;;8.36;100.00
20394;BME280;10356;50.544;9.642;2023-04-25T00:57:31;97488.59;;;8.33;100.00
20394;BME280;10356;50.544;9.642;2023-04-25T00:59:58;97482.97;;;8.28;87.85
20394;BME280;10356;50.544;9.642;2023-04-25T01:02:25;97481.31;;;8.27;90.62
20394;BME280;10356;50.544;9.642;2023-04-25T01:04:52;97485.06;;;8.23;93.55
20394;BME280;10356;50.544;9.642;2023-04-25T01:07:19;97480.16;;;8.20;95.66
20394;BME280;10356;50.544;9.642;2023-04-25T01:09:46;97478.13;;;8.23;97.32
20394;BME280;10356;50.544;9.642;2023-04-25T01:12:12;97472.84;;;8.14;99.42
20394;BME280;10356;50.544;9.642;2023-04-25T01:14:41;97485.81;;;8.14;100.00
20394;BME280;10356;50.544;9.642;2023-04-25T01:17:08;97478.13;;;8.12;100.00
20394;BME280;10356;50.544;9.642;2023-04-25T01:19:34;97470.63;;;8.09;100.00
20394;BME280;10356;50.544;9.642;2023-04-25T01:22:02;97469.28;;;8.15;100.00
20394;BME280;10356;50.544;9.642;2023-04-25T01:24:31;97469.78;;;8.09;100.00
20394;BME280;10356;50.544;9.642;2023-04-25T01:26:58;97471.06;;;8.14;100.00
20394;BME280;10356;50.544;9.642;2023-04-25T01:29:26;97464.72;;;8.07;100.00
20394;BME280;10356;50.544;9.642;2023-04-25T01:31:53;97462.84;;;8.09;100.00
20394;BME280;10356;50.544;9.642;2023-04-25T01:34:20;97458.97;;;8.04;100.00
20394;BME280;10356;50.544;9.642;2023-04-25T01:36:49;97467.94;;;8.00;100.00
20394;BME280;10356;50.544;9.642;2023-04-25T01:39:17;97468.66;;;8.02;100.00
20394;BME280;10356;50.544;9.642;2023-04-25T01:41:44;97465.22;;;8.01;100.00
20394;BME280;10356;50.544;9.642;2023-04-25T01:44:11;97462.63;;;8.01;100.00
20394;BME280;10356;50.544;9.642;2023-04-25T01:46:38;97475.59;;;8.01;100.00
20394;BME280;10356;50.544;9.642;2023-04-25T01:49:04;97468.75;;;8.00;100.00
20394;BME280;10356;50.544;9.642;2023-04-25T01:51:31;97482.88;;;8.07;100.00
20394;BME280;10356;50.544;9.642;2023-04-25T01:53:58;97478.31;;;8.00;100.00
20394;BME280;10356;50.544;9.642;2023-04-25T01:56:29;97478.31;;;8.00;100.00
20394;BME280;10356;50.544;9.642;2023-04-25T01:58:56;97487.03;;;7.99;100.00
20394;BME280;10356;50.544;9.642;2023-04-25T02:01:23;97483.25;;;8.03;100.00
20394;BME280;10356;50.544;9.642;2023-04-25T02:03:50;97481.00;;;7.98;100.00
20394;BME280;10356;50.544;9.642;2023-04-25T02:06:16;97486.19;;;7.98;100.00
20394;BME280;10356;50.544;9.642;2023-04-25T02:08:43;97481.84;;;7.99;100.00
20394;BME280;10356;50.544;9.642;2023-04-25T02:11:09;97481.63;;;8.02;100.00
20394;BME280;10356;50.544;9.642;2023-04-25T02:13:37;97483.50;;;8.00;100.00
20394;BME280;10356;50.544;9.642;2023-04-25T02:16:04;97478.53;;;7.97;100.00
20394;BME280;10356;50.544;9.642;2023-04-25T02:18:31;97485.88;;;7.92;100.00
20394;BME280;10356;50.544;9.642;2023-04-25T02:20:58;97485.88;;;7.92;100.00
20394;BME280;10356;50.544;9.642;2023-04-25T02:23:26;97486.81;;;7.91;100.00
20394;BME280;10356;50.544;9.642;2023-04-25T02:25:53;97481.19;;;7.86;100.00
20394;BME280;10356;50.544;9.642;2023-04-25T02:28:20;97476.69;;;7.88;100.00
20394;BME280;10356;50.544;9.642;2023-04-25T02:30:48;97473.63;;;7.83;100.00
20394;BME280;10356;50.544;9.642;2023-04-25T02:33:14;97488.00;;;7.87;100.00
20394;BME280;10356;50.544;9.642;2023-04-25T02:35:42;97483.88;;;7.84;100.00
20394;BME280;10356;50.544;9.642;2023-04-25T02:38:08;97481.19;;;7.86;100.00
20394;BME280;10356;50.544;9.642;2023-04-25T02:40:35;97489.53;;;7.78;97.53
20394;BME280;10356;50.544;9.642;2023-04-25T02:43:01;97486.50;;;7.73;96.08
20394;BME280;10356;50.544;9.642;2023-04-25T02:45:28;97482.72;;;7.77;92.95
20394;BME280;10356;50.544;9.642;2023-04-25T02:47:55;97480.69;;;7.70;92.86
20394;BME280;10356;50.544;9.642;2023-04-25T02:50:22;97481.31;;;7.73;89.59
20394;BME280;10356;50.544;9.642;2023-04-25T02:52:49;97488.59;;;7.68;90.69
20394;BME280;10356;50.544;9.642;2023-04-25T02:55:15;97484.59;;;7.64;89.14
20394;BME280;10356;50.544;9.642;2023-04-25T02:57:42;97485.78;;;7.60;87.34
20394;BME280;10356;50.544;9.642;2023-04-25T03:00:09;97483.78;;;7.52;87.59
20394;BME280;10356;50.544;9.642;2023-04-25T03:02:36;97494.38;;;7.49;87.52
20394;BME280;10356;50.544;9.642;2023-04-25T03:05:04;97486.38;;;7.41;87.14
20394;BME280;10356;50.544;9.642;2023-04-25T03:07:31;97488.50;;;7.36;87.54
20394;BME280;10356;50.544;9.642;2023-04-25T03:09:58;97484.97;;;7.26;87.19
20394;BME280;10356;50.544;9.642;2023-04-25T03:12:24;97482.59;;;7.23;87.60
20394;BME280;10356;50.544;9.642;2023-04-25T03:14:51;97485.91;;;7.25;87.45
20394;BME280;10356;50.544;9.642;2023-04-25T03:17:17;97479.06;;;7.13;87.31
20394;BME280;10356;50.544;9.642;2023-04-25T03:19:44;97496.47;;;7.11;87.80
20394;BME280;10356;50.544;9.642;2023-04-25T03:22:12;97486.94;;;7.01;87.48
20394;BME280;10356;50.544;9.642;2023-04-25T03:24:38;97481.88;;;6.99;88.04
20394;BME280;10356;50.544;9.642;2023-04-25T03:27:06;97476.22;;;6.94;88.04
20394;BME280;10356;50.544;9.642;2023-04-25T03:29:32;97486.09;;;6.89;87.54
20394;BME280;10356;50.544;9.642;2023-04-25T03:31:59;97491.00;;;6.81;87.94
20394;BME280;10356;50.544;9.642;2023-04-25T03:34:25;97492.31;;;6.75;88.87
20394;BME280;10356;50.544;9.642;2023-04-25T03:36:52;97488.75;;;6.65;89.42
20394;BME280;10356;50.544;9.642;2023-04-25T03:39:20;97487.44;;;6.60;89.76
20394;BME280;10356;50.544;9.642;2023-04-25T03:41:46;97492.03;;;6.56;89.97
20394;BME280;10356;50.544;9.642;2023-04-25T03:44:13;97491.41;;;6.53;90.02
20394;BME280;10356;50.544;9.642;2023-04-25T03:46:40;97490.41;;;6.43;91.00
20394;BME280;10356;50.544;9.642;2023-04-25T03:49:06;97495.84;;;6.40;91.39
20394;BME280;10356;50.544;9.642;2023-04-25T03:51:33;97494.84;;;6.30;92.63
20394;BME280;10356;50.544;9.642;2023-04-25T03:53:59;97495.38;;;6.22;93.85
20394;BME280;10356;50.544;9.642;2023-04-25T03:56:27;97489.94;;;6.14;94.75
20394;BME280;10356;50.544;9.642;2023-04-25T03:58:54;97494.84;;;6.06;95.57
20394;BME280;10356;50.544;9.642;2023-04-25T04:01:20;97503.97;;;5.99;95.39
20394;BME280;10356;50.544;9.642;2023-04-25T04:03:46;97501.22;;;5.89;94.96
20394;BME280;10356;50.544;9.642;2023-04-25T04:06:13;97497.91;;;5.87;95.37
20394;BME280;10356;50.544;9.642;2023-04-25T04:08:40;97502.53;;;5.82;96.31
20394;BME280;10356;50.544;9.642;2023-04-25T04:11:06;97497.69;;;5.78;95.98
20394;BME280;10356;50.544;9.642;2023-04-25T04:13:34;97514.88;;;5.66;96.55
20394;BME280;10356;50.544;9.642;2023-04-25T04:16:01;97512.44;;;5.52;97.18
20394;BME280;10356;50.544;9.642;2023-04-25T04:18:29;97520.47;;;5.60;96.23
20394;BME280;10356;50.544;9.642;2023-04-25T04:20:55;97520.28;;;5.63;93.52
20394;BME280;10356;50.544;9.642;2023-04-25T04:23:23;97523.78;;;5.62;91.03
20394;BME280;10356;50.544;9.642;2023-04-25T04:25:49;97520.88;;;5.79;87.68
20394;BME280;10356;50.544;9.642;2023-04-25T04:28:17;97530.38;;;5.79;87.30
20394;BME280;10356;50.544;9.642;2023-04-25T04:30:45;97524.91;;;5.83;86.68
20394;BME280;10356;50.544;9.642;2023-04-25T04:33:12;97538.13;;;5.91;86.46
20394;BME280;10356;50.544;9.642;2023-04-25T04:35:40;97535.16;;;5.85;87.39
20394;BME280;10356;50.544;9.642;2023-04-25T04:38:07;97536.69;;;5.87;87.92
20394;BME280;10356;50.544;9.642;2023-04-25T04:40:33;97532.72;;;5.82;88.38
20394;BME280;10356;50.544;9.642;2023-04-25T04:43:00;97543.50;;;5.88;88.19
20394;BME280;10356;50.544;9.642;2023-04-25T04:45:27;97548.13;;;5.96;88.11
20394;BME280;10356;50.544;9.642;2023-04-25T04:47:55;97551.63;;;6.08;87.88
20394;BME280;10356;50.544;9.642;2023-04-25T04:50:21;97557.41;;;6.11;87.77
20394;BME280;10356;50.544;9.642;2023-04-25T04:52:48;97559.72;;;6.27;87.00
20394;BME280;10356;50.544;9.642;2023-04-25T04:55:14;97566.09;;;6.46;86.79
20394;BME280;10356;50.544;9.642;2023-04-25T04:57:41;97576.25;;;6.60;86.57
20394;BME280;10356;50.544;9.642;2023-04-25T05:00:09;97580.56;;;6.72;85.85
20394;BME280;10356;50.544;9.642;2023-04-25T05:02:37;97575.72;;;6.68;86.12
20394;BME280;10356;50.544;9.642;2023-04-25T05:05:05;97582.63;;;6.67;85.86
20394;BME280;10356;50.544;9.642;2023-04-25T05:07:31;97587.88;;;6.55;85.71
20394;BME280;10356;50.544;9.642;2023-04-25T05:09:58;97590.69;;;6.52;85.83
20394;BME280;10356;50.544;9.642;2023-04-25T05:12:24;97589.13;;;6.49;86.30
20394;BME280;10356;50.544;9.642;2023-04-25T05:14:51;97586.88;;;6.45;87.84
20394;BME280;10356;50.544;9.642;2023-04-25T05:17:17;97584.59;;;6.40;87.26
20394;BME280;10356;50.544;9.642;2023-04-25T05:19:44;97589.53;;;6.56;85.14
20394;BME280;10356;50.544;9.642;2023-04-25T05:22:11;97588.13;;;6.63;85.50
20394;BME280;10356;50.544;9.642;2023-04-25T05:24:38;97583.69;;;6.65;84.39
20394;BME280;10356;50.544;9.642;2023-04-25T05:27:04;97586.50;;;6.62;84.49
20394;BME280;10356;50.544;9.642;2023-04-25T05:29:31;97588.50;;;6.58;84.45
20394;BME280;10356;50.544;9.642;2023-04-25T05:31:58;97594.25;;;6.62;84.11
20394;BME280;10356;50.544;9.642;2023-04-25T05:34:24;97594.81;;;6.78;84.28
20394;BME280;10356;50.544;9.642;2023-04-25T05:36:51;97587.13;;;7.00;83.56
20394;BME280;10356;50.544;9.642;2023-04-25T05:39:18;97584.78;;;7.08;83.84
20394;BME280;10356;50.544;9.642;2023-04-25T05:41:45;97584.59;;;7.22;82.68
20394;BME280;10356;50.544;9.642;2023-04-25T05:44:12;97589.06;;;7.31;83.31
20394;BME280;10356;50.544;9.642;2023-04-25T05:46:38;97581.22;;;7.44;82.75
20394;BME280;10356;50.544;9.642;2023-04-25T05:49:05;97583.91;;;7.53;82.21
20394;BME280;10356;50.544;9.642;2023-04-25T05:51:32;97586.75;;;7.61;81.00
20394;BME280;10356;50.544;9.642;2023-04-25T05:53:58;97590.19;;;7.51;79.47
20394;BME280;10356;50.544;9.642;2023-04-25T05:56:26;97586.06;;;7.48;79.31
20394;BME280;10356;50.544;9.642;2023-04-25T05:58:53;97589.81;;;7.55;78.83
20394;BME280;10356;50.544;9.642;2023-04-25T06:01:20;97600.69;;;7.60;79.57
20394;BME280;10356;50.544;9.642;2023-04-25T06:03:46;97599.47;;;7.53;79.06
20394;BME280;10356;50.544;9.642;2023-04-25T06:06:13;97603.59;;;7.45;80.34
20394;BME280;10356;50.544;9.642;2023-04-25T06:08:39;97602.78;;;7.44;78.65
20394;BME280;10356;50.544;9.642;2023-04-25T06:11:06;97601.97;;;7.55;78.83
20394;BME280;10356;50.544;9.642;2023-04-25T06:13:34;97604.31;;;7.58;78.73
20394;BME280;10356;50.544;9.642;2023-04-25T06:16:00;97607.03;;;7.56;78.69
20394;BME280;10356;50.544;9.642;2023-04-25T06:18:27;97607.28;;;7.64;78.93
20394;BME280;10356;50.544;9.642;2023-04-25T06:20:53;97610.13;;;7.73;79.12
20394;BME280;10356;50.544;9.642;2023-04-25T06:23:20;97604.81;;;7.74;78.39
20394;BME280;10356;50.544;9.642;2023-04-25T06:25:46;97604.94;;;7.84;78.82
20394;BME280;10356;50.544;9.642;2023-04-25T06:28:13;97612.50;;;7.98;78.97
20394;BME280;10356;50.544;9.642;2023-04-25T06:30:41;97619.53;;;7.85;79.51
20394;BME280;10356;50.544;9.642;2023-04-25T06:33:07;97620.28;;;7.98;78.92
20394;BME280;10356;50.544;9.642;2023-04-25T06:35:34;97618.59;;;7.97;78.36
20394;BME280;10356;50.544;9.642;2023-04-25T06:38:01;97620.97;;;8.11;79.19
20394;BME280;10356;50.544;9.642;2023-04-25T06:40:28;97616.13;;;8.17;78.40
20394;BME280;10356;50.544;9.642;2023-04-25T06:42:54;97616.25;;;8.27;78.70
20394;BME280;10356;50.544;9.642;2023-04-25T06:45:20;97608.69;;;8.35;76.04
20394;BME280;10356;50.544;9.642;2023-04-25T06:47:48;97610.09;;;8.39;76.22
20394;BME280;10356;50.544;9.642;2023-04-25T06:50:15;97608.13;;;8.31;76.12
20394;BME280;10356;50.544;9.642;2023-04-25T06:52:41;97608.59;;;8.25;76.14
20394;BME280;10356;50.544;9.642;2023-04-25T06:55:08;97611.66;;;8.19;77.19
20394;BME280;10356;50.544;9.642;2023-04-25T06:57:35;97626.50;;;8.39;76.21
20394;BME280;10356;50.544;9.642;2023-04-25T07:00:02;97613.34;;;8.63;75.95
20394;BME280;10356;50.544;9.642;2023-04-25T07:02:30;97621.13;;;8.74;74.09
20394;BME280;10356;50.544;9.642;2023-04-25T07:04:58;97620.88;;;8.77;74.83
20394;BME280;10356;50.544;9.642;2023-04-25T07:07:25;97626.81;;;9.00;75.67
20394;BME280;10356;50.544;9.642;2023-04-25T07:09:51;97627.66;;;9.00;72.52
20394;BME280;10356;50.544;9.642;2023-04-25T07:12:18;97632.16;;;8.98;72.86
20394;BME280;10356;50.544;9.642;2023-04-25T07:14:44;97635.47;;;8.89;73.50
20394;BME280;10356;50.544;9.642;2023-04-25T07:17:11;97633.94;;;8.87;72.05
20394;BME280;10356;50.544;9.642;2023-04-25T07:19:37;97636.44;;;8.77;72.69
20394;BME280;10356;50.544;9.642;2023-04-25T07:22:06;97633.41;;;8.72;73.35
20394;BME280;10356;50.544;9.642;2023-04-25T07:24:32;97635.81;;;8.53;74.55
20394;BME280;10356;50.544;9.642;2023-04-25T07:26:59;97635.34;;;8.48;75.46
20394;BME280;10356;50.544;9.642;2023-04-25T07:29:26;97649.97;;;8.49;74.59
20394;BME280;10356;50.544;9.642;2023-04-25T07:31:52;97643.25;;;8.46;73.66
20394;BME280;10356;50.544;9.642;2023-04-25T07:34:19;97645.47;;;8.51;73.68
20394;BME280;10356;50.544;9.642;2023-04-25T07:36:46;97652.78;;;8.57;74.32
20394;BME280;10356;50.544;9.642;2023-04-25T07:39:14;97647.31;;;8.71;74.20
20394;BME280;10356;50.544;9.642;2023-04-25T07:41:40;97647.09;;;8.74;72.67
20394;BME280;10356;50.544;9.642;2023-04-25T07:44:07;97651.31;;;8.86;71.83
20394;BME280;10356;50.544;9.642;2023-04-25T07:46:33;97647.59;;;9.00;72.06
20394;BME280;10356;50.544;9.642;2023-04-25T07:49:00;97648.72;;;8.86;70.27
20394;BME280;10356;50.544;9.642;2023-04-25T07:51:26;97653.84;;;8.97;73.03
20394;BME280;10356;50.544;9.642;2023-04-25T07:53:53;97652.94;;;8.87;71.21
20394;BME280;10356;50.544;9.642;2023-04-25T07:56:20;97657.91;;;8.90;71.01
20394;BME280;10356;50.544;9.642;2023-04-25T07:58:47;97661.06;;;9.05;70.27
20394;BME280;10356;50.544;9.642;2023-04-25T08:01:13;97664.16;;;9.19;70.51
20394;BME280;10356;50.544;9.642;2023-04-25T08:03:40;97663.09;;;9.22;69.85
20394;BME280;10356;50.544;9.642;2023-04-25T08:06:06;97650.28;;;9.41;70.52
20394;BME280;10356;50.544;9.642;2023-04-25T08:08:33;97656.84;;;9.66;69.38
20394;BME280;10356;50.544;9.642;2023-04-25T08:11:00;97662.00;;;9.77;68.39
20394;BME280;10356;50.544;9.642;2023-04-25T08:13:27;97654.00;;;9.89;68.08
20394;BME280;10356;50.544;9.642;2023-04-25T08:15:54;97663.25;;;9.82;67.32
20394;BME280;10356;50.544;9.642;2023-04-25T08:18:20;97665.41;;;9.77;67.76
20394;BME280;10356;50.544;9.642;2023-04-25T08:20:47;97672.22;;;9.69;67.50
20394;BME280;10356;50.544;9.642;2023-04-25T08:23:13;97678.09;;;9.71;67.58
20394;BME280;10356;50.544;9.642;2023-04-25T08:25:40;97672.44;;;9.66;66.07
20394;BME280;10356;50.544;9.642;2023-04-25T08:28:06;97679.94;;;9.80;66.44
20394;BME280;10356;50.544;9.642;2023-04-25T08:30:34;97675.41;;;10.23;65.03
20394;BME280;10356;50.544;9.642;2023-04-25T08:33:01;97682.94;;;10.56;66.25
20394;BME280;10356;50.544;9.642;2023-04-25T08:35:28;97676.88;;;11.34;62.62
20394;BME280;10356;50.544;9.642;2023-04-25T08:37:54;97684.00;;;11.32;62.60
20394;BME280;10356;50.544;9.642;2023-04-25T08:40:22;97685.53;;;11.25;60.19
20394;BME280;10356;50.544;9.642;2023-04-25T08:42:52;97689.44;;;10.81;62.00
20394;BME280;10356;50.544;9.642;2023-04-25T08:45:20;97693.69;;;10.82;61.71
20394;BME280;10356;50.544;9.642;2023-04-25T08:47:48;97696.91;;;10.55;62.66
20394;BME280;10356;50.544;9.642;2023-04-25T08:50:18;97700.56;;;10.43;62.94
20394;BME280;10356;50.544;9.642;2023-04-25T08:52:46;97703.19;;;10.02;65.77
20394;BME280;10356;50.544;9.642;2023-04-25T08:55:15;97706.34;;;9.55;64.64
20394;BME280;10356;50.544;9.642;2023-04-25T08:57:42;97710.06;;;9.62;66.48
20394;BME280;10356;50.544;9.642;2023-04-25T09:00:10;97710.13;;;9.51;68.66
20394;BME280;10356;50.544;9.642;2023-04-25T09:02:37;97722.00;;;9.64;69.54
20394;BME280;10356;50.544;9.642;2023-04-25T09:05:07;97718.47;;;9.65;70.54
20394;BME280;10356;50.544;9.642;2023-04-25T09:07:35;97728.13;;;9.43;70.46
20394;BME280;10356;50.544;9.642;2023-04-25T09:10:01;97735.16;;;9.31;70.95
20394;BME280;10356;50.544;9.642;2023-04-25T09:12:29;97739.59;;;8.97;73.89
20394;BME280;10356;50.544;9.642;2023-04-25T09:15:04;97737.16;;;8.63;76.38
20394;BME280;10356;50.544;9.642;2023-04-25T09:17:30;97747.06;;;8.80;78.12
20394;BME280;10356;50.544;9.642;2023-04-25T09:20:07;97746.81;;;8.83;75.76
20394;BME280;10356;50.544;9.642;2023-04-25T09:22:34;97753.56;;;8.85;74.96
20394;BME280;10356;50.544;9.642;2023-04-25T09:25:02;97764.53;;;8.67;73.08
20394;BME280;10356;50.544;9.642;2023-04-25T09:27:29;97758.03;;;8.83;73.36
20394;BME280;10356;50.544;9.642;2023-04-25T09:29:57;97753.66;;;8.95;73.97
20394;BME280;10356;50.544;9.642;2023-04-25T09:32:24;97754.00;;;9.01;71.30
20394;BME280;10356;50.544;9.642;2023-04-25T09:34:52;97750.47;;;9.02;70.60
20394;BME280;10356;50.544;9.642;2023-04-25T09:37:21;97763.47;;;9.45;68.98
20394;BME280;10356;50.544;9.642;2023-04-25T09:39:49;97757.38;;;9.56;69.45
20394;BME280;10356;50.544;9.642;2023-04-25T09:42:17;97759.75;;;10.00;67.15
20394;BME280;10356;50.544;9.642;2023-04-25T09:44:44;97756.34;;;9.79;67.52
20394;BME280;10356;50.544;9.642;2023-04-25T09:47:12;97766.09;;;9.66;69.58
20394;BME280;10356;50.544;9.642;2023-04-25T09:49:40;97757.16;;;10.00;66.08
20394;BME280;10356;50.544;9.642;2023-04-25T09:52:08;97757.47;;;10.18;66.27
20394;BME280;10356;50.544;9.642;2023-04-25T09:54:36;97766.00;;;10.08;67.03
20394;BME280;10356;50.544;9.642;2023-04-25T09:57:15;97761.84;;;10.47;65.97
20394;BME280;10356;50.544;9.642;2023-04-25T09:59:46;97762.19;;;10.33;66.00
20394;BME280;10356;50.544;9.642;2023-04-25T10:02:14;97767.06;;;10.47;64.93
20394;BME280;10356;50.544;9.642;2023-04-25T10:04:41;97775.91;;;10.35;65.83
20394;BME280;10356;50.544;9.642;2023-04-25T10:07:08;97771.34;;;10.48;64.15
20394;BME280;10356;50.544;9.642;2023-04-25T10:09:38;97778.97;;;10.40;64.22
20394;BME280;10356;50.544;9.642;2023-04-25T10:12:06;97779.09;;;10.18;64.57
20394;BME280;10356;50.544;9.642;2023-04-25T10:14:33;97784.97;;;9.99;66.23
20394;BME280;10356;50.544;9.642;2023-04-25T10:17:01;97789.03;;;9.92;67.20
20394;BME280;10356;50.544;9.642;2023-04-25T10:19:28;97788.91;;;9.94;68.52
20394;BME280;10356;50.544;9.642;2023-04-25T10:22:06;97790.94;;;9.90;69.31
20394;BME280;10356;50.544;9.642;2023-04-25T10:24:34;97794.16;;;9.83;72.08
20394;BME280;10356;50.544;9.642;2023-04-25T10:27:03;97787.25;;;9.93;71.97
20394;BME280;10356;50.544;9.642;2023-04-25T10:29:30;97795.41;;;9.99;69.21
20394;BME280;10356;50.544;9.642;2023-04-25T10:31:57;97793.91;;;9.86;68.91
20394;BME280;10356;50.544;9.642;2023-04-25T10:34:25;97798.38;;;9.95;69.66
20394;BME280;10356;50.544;9.642;2023-04-25T10:37:04;97804.13;;;10.30;70.12
20394;BME280;10356;50.544;9.642;2023-04-25T10:39:32;97805.25;;;10.37;65.80
20394;BME280;10356;50.544;9.642;2023-04-25T10:42:02;97804.78;;;10.53;63.97
20394;BME280;10356;50.544;9.642;2023-04-25T10:44:29;97804.78;;;10.53;64.55
20394;BME280;10356;50.544;9.642;2023-04-25T10:46:57;97793.13;;;10.77;64.15
20394;BME280;10356;50.544;9.642;2023-04-25T10:49:32;97811.38;;;10.57;60.58
20394;BME280;10356;50.544;9.642;2023-04-25T10:52:15;97805.38;;;10.56;58.98
20394;BME280;10356;50.544;9.642;2023-04-25T10:54:42;97814.28;;;10.33;59.63
20394;BME280;10356;50.544;9.642;2023-04-25T10:57:32;97814.59;;;10.60;61.38
20394;BME280;10356;50.544;9.642;2023-04-25T11:00:07;97818.41;;;10.56;58.85
20394;BME280;10356;50.544;9.642;2023-04-25T11:02:43;97820.22;;;10.65;59.10
20394;BME280;10356;50.544;9.642;2023-04-25T11:05:10;97819.69;;;10.71;58.11
20394;BME280;10356;50.544;9.642;2023-04-25T11:07:49;97827.16;;;10.85;57.04
20394;BME280;10356;50.544;9.642;2023-04-25T11:10:16;97830.41;;;10.68;57.31
20394;BME280;10356;50.544;9.642;2023-04-25T11:12:44;97821.38;;;10.72;57.80
20394;BME280;10356;50.544;9.642;2023-04-25T11:15:11;97822.47;;;11.10;58.88
20394;BME280;10356;50.544;9.642;2023-04-25T11:17:38;97817.16;;;11.30;58.34
20394;BME280;10356;50.544;9.642;2023-04-25T11:20:06;97818.78;;;11.80;58.03
20394;BME280;10356;50.544;9.642;2023-04-25T11:22:37;97823.72;;;11.74;54.14
20394;BME280;10356;50.544;9.642;2023-04-25T11:25:08;97825.25;;;11.96;53.87
20394;BME280;10356;50.544;9.642;2023-04-25T11:27:38;97821.78;;;12.14;51.96
20394;BME280;10356;50.544;9.642;2023-04-25T11:30:14;97821.66;;;11.97;51.71
20394;BME280;10356;50.544;9.642;2023-04-25T11:32:41;97815.94;;;12.58;51.99
20394;BME280;10356;50.544;9.642;2023-04-25T11:35:08;97818.88;;;12.83;50.74
20394;BME280;10356;50.544;9.642;2023-04-25T11:37:35;97823.81;;;12.49;50.67
20394;BME280;10356;50.544;9.642;2023-04-25T11:40:02;97827.41;;;12.29;53.32
20394;BME280;10356;50.544;9.642;2023-04-25T11:42:31;97832.78;;;11.99;54.81
20394;BME280;10356;50.544;9.642;2023-04-25T11:44:58;97829.34;;;11.98;52.49
20394;BME280;10356;50.544;9.642;2023-04-25T11:47:29;97824.78;;;11.62;51.32
20394;BME280;10356;50.544;9.642;2023-04-25T11:49:57;97834.81;;;11.57;52.19
20394;BME280;10356;50.544;9.642;2023-04-25T11:52:24;97841.63;;;11.39;52.34
20394;BME280;10356;50.544;9.642;2023-04-25T11:54:50;97839.19;;;11.56;51.15
20394;BME280;10356;50.544;9.642;2023-04-25T11:57:19;97842.28;;;11.71;51.98
20394;BME280;10356;50.544;9.642;2023-04-25T11:59:45;97837.06;;;12.00;52.06
20394;BME280;10356;50.544;9.642;2023-04-25T12:02:24;97833.22;;;11.85;52.92
20394;BME280;10356;50.544;9.642;2023-04-25T12:04:52;97848.59;;;12.07;50.60
20394;BME280;10356;50.544;9.642;2023-04-25T12:07:18;97843.25;;;11.89;50.24
20394;BME280;10356;50.544;9.642;2023-04-25T12:09:51;97849.31;;;11.90;49.56
20394;BME280;10356;50.544;9.642;2023-04-25T12:12:17;97853.06;;;11.57;51.68
20394;BME280;10356;50.544;9.642;2023-04-25T12:14:46;97865.84;;;11.11;52.39
20394;BME280;10356;50.544;9.642;2023-04-25T12:17:14;97860.78;;;11.19;52.05
20394;BME280;10356;50.544;9.642;2023-04-25T12:19:40;97860.09;;;11.17;51.59
20394;BME280;10356;50.544;9.642;2023-04-25T12:22:21;97858.69;;;11.62;52.09
20394;BME280;10356;50.544;9.642;2023-04-25T12:24:47;97857.38;;;11.77;48.83
20394;BME280;10356;50.544;9.642;2023-04-25T12:27:15;97859.84;;;12.26;49.71
20394;BME280;10356;50.544;9.642;2023-04-25T12:29:51;97857.91;;;12.47;49.56
20394;BME280;10356;50.544;9.642;2023-04-25T12:32:18;97856.25;;;12.56;47.97
20394;BME280;10356;50.544;9.642;2023-04-25T12:34:44;97852.63;;;12.66;48.83
20394;BME280;10356;50.544;9.642;2023-04-25T12:37:11;97861.50;;;12.56;45.30
20394;BME280;10356;50.544;9.642;2023-04-25T12:39:39;97871.94;;;12.46;45.77
20394;BME280;10356;50.544;9.642;2023-04-25T12:42:06;97871.28;;;12.16;45.05
20394;BME280;10356;50.544;9.642;2023-04-25T12:44:33;97867.00;;;11.86;44.25
20394;BME280;10356;50.544;9.642;2023-04-25T12:46:59;97864.66;;;11.73;46.42
20394;BME280;10356;50.544;9.642;2023-04-25T12:49:26;97872.97;;;11.58;46.02
20394;BME280;10356;50.544;9.642;2023-04-25T12:51:52;97874.56;;;11.40;46.52
20394;BME280;10356;50.544;9.642;2023-04-25T12:54:19;97871.09;;;11.30;46.50
20394;BME280;10356;50.544;9.642;2023-04-25T12:56:46;97882.59;;;11.18;48.11
20394;BME280;10356;50.544;9.642;2023-04-25T12:59:13;97875.78;;;11.36;48.03
20394;BME280;10356;50.544;9.642;2023-04-25T13:01:40;97875.09;;;11.34;48.72
20394;BME280;10356;50.544;9.642;2023-04-25T13:04:06;97882.53;;;11.38;49.32
20394;BME280;10356;50.544;9.642;2023-04-25T13:06:33;97892.25;;;11.27;48.42